This is the latest recevied weather packets stored in our database for station/object WM1X. If no packets are shown the sender has not sent any weather packets the latest 10 day(s).
| Time | Temp. | Humidity | Pressure | Rain* | Wind** | Luminosity | Snow |
|---|---|---|---|---|---|---|---|
| 1777364703 | 3.89° C | 86% | 1023.3 hPa | 0 mm | - | - | - |
| 1777361704 | 5° C | 83% | 1023.1 hPa | 0 mm | - | - | - |
| 1777359903 | 5.56° C | 80% | 1023 hPa | 0 mm | - | - | - |
| 1777359304 | 5.56° C | 79% | 1023 hPa | 0 mm | - | - | - |
| 1777356304 | 6.67° C | 74% | 1023 hPa | 0 mm | - | - | - |
| 1777355704 | 6.67° C | 76% | 1023.1 hPa | 0 mm | - | - | - |
| 1777352104 | 7.22° C | 74% | 1023.9 hPa | 0 mm | - | - | - |
| 1777349704 | 6.67° C | 78% | 1024.3 hPa | 0 mm | - | - | - |
| 1777344903 | 7.78° C | 74% | 1024.7 hPa | 0 mm | - | - | - |
| 1777342503 | 8.89° C | 69% | 1024.9 hPa | 0 mm | - | - | - |
| 1777341304 | 9.44° C | 68% | 1024.9 hPa | 0 mm | - | - | - |
| 1777337703 | 11.67° C | 61% | 1024.9 hPa | 0 mm | - | - | - |
| 1777335904 | 13.89° C | 51% | 1024.8 hPa | 0 mm | - | - | - |
| 1777331704 | 17.22° C | 40% | 1024.3 hPa | 0 mm | - | - | - |
| 1777319104 | 18.89° C | 33% | 1024.3 hPa | 0 mm | - | - | - |
| 1777313104 | 18.33° C | 35% | 1024.9 hPa | 0 mm | - | - | - |
| 1777311903 | 18.33° C | 34% | 1025.1 hPa | 0 mm | - | - | - |
| 1777311305 | 18.33° C | 35% | 1025.1 hPa | 0 mm | - | - | - |
| 1777303504 | 15.56° C | 41% | 1026.1 hPa | 0 mm | - | - | - |
| 1777301104 | 15° C | 43% | 1026.2 hPa | 0 mm | - | - | - |
| 1777300504 | 14.44° C | 46% | 1026.1 hPa | 0 mm | - | - | - |
| 1777296304 | 12.78° C | 50% | 1025.9 hPa | 0 mm | - | - | - |
| 1777289704 | 10° C | 67% | 1025.3 hPa | 0 mm | - | - | - |
| 1777286105 | 4.44° C | 82% | 1024.7 hPa | 0 mm | - | - | - |
| 1777278903 | 3.33° C | 85% | 1023.2 hPa | 0 mm | - | - | - |
* Rain latest hour (hover to see other rain measurements)
** Current wind speed in m/s (hover to see current wind gust speed)